Time;durP1;ratioP1;P1;durP2;ratioP2;P2;SDS_P1;SDS_P2;PMS_P1;PMS_P2;Temp;Humidity;BMP_temperature;BMP_pressure;BME280_temperature;BME280_humidity;BME280_pressure;Samples;Min_cycle;Max_cycle;Signal;HPM_P1;HPM_P2
2023/01/16 00:00:04;;;;;;;44.67;42.95;;;0.60;99.90;;;;;;5092559;28;20050;-80
2023/01/16 00:02:29;;;;;;;115.75;105.47;;;0.60;99.90;;;;;;5093700;28;20478;-79
2023/01/16 00:04:55;;;;;;;186.48;170.35;;;0.70;99.90;;;;;;5095857;28;20032;-80
2023/01/16 00:07:22;;;;;;;48.78;46.63;;;0.70;99.90;;;;;;5099808;28;20541;-80
2023/01/16 00:09:47;;;;;;;133.60;126.30;;;0.70;99.90;;;;;;5097143;28;20122;-80
2023/01/16 00:12:13;;;;;;;38.42;36.92;;;0.90;99.90;;;;;;5090879;28;20107;-80
2023/01/16 00:14:38;;;;;;;58.58;56.13;;;0.80;99.90;;;;;;5102771;28;20032;-79
2023/01/16 00:17:04;;;;;;;239.45;222.30;;;0.80;99.90;;;;;;5076367;28;20054;-80
2023/01/16 00:19:30;;;;;;;23.23;22.20;;;0.90;99.90;;;;;;5091911;28;20520;-79
2023/01/16 00:21:55;;;;;;;28.70;27.48;;;0.90;99.90;;;;;;5097001;28;20028;-80
2023/01/16 00:24:21;;;;;;;42.05;40.38;;;0.90;99.90;;;;;;5093284;28;20123;-79
2023/01/16 00:26:51;;;;;;;26.60;24.40;;;0.90;99.90;;;;;;5101215;28;20436;-79
2023/01/16 00:29:16;;;;;;;88.07;80.53;;;0.90;99.90;;;;;;5087568;28;20028;-79
2023/01/16 00:31:42;;;;;;;42.50;40.58;;;0.90;99.90;;;;;;5102714;28;20111;-79
2023/01/16 00:34:08;;;;;;;33.78;32.58;;;0.90;99.90;;;;;;5094255;28;20094;-79
2023/01/16 00:36:33;;;;;;;155.30;142.40;;;0.80;99.90;;;;;;5101368;28;20043;-79
2023/01/16 00:38:59;;;;;;;25.33;24.38;;;0.80;99.90;;;;;;5099450;28;20032;-80
2023/01/16 00:41:24;;;;;;;57.30;54.75;;;0.90;99.90;;;;;;5097567;28;20396;-80
2023/01/16 00:43:51;;;;;;;36.70;35.25;;;0.80;99.90;;;;;;5096892;28;20077;-79
2023/01/16 00:46:17;;;;;;;37.65;36.15;;;0.90;99.90;;;;;;5094846;28;20058;-79
2023/01/16 00:48:43;;;;;;;39.92;38.38;;;0.80;99.90;;;;;;5105096;28;20027;-80
2023/01/16 00:51:08;;;;;;;70.55;67.72;;;0.80;99.90;;;;;;5100558;28;20505;-79
2023/01/16 00:53:34;;;;;;;159.23;144.52;;;0.80;99.90;;;;;;5096950;28;20027;-80
2023/01/16 00:55:59;;;;;;;155.40;140.65;;;0.80;99.90;;;;;;5101845;28;20075;-79
2023/01/16 00:58:25;;;;;;;110.05;101.90;;;0.80;99.90;;;;;;5095717;28;20024;-79
2023/01/16 01:00:51;;;;;;;34.72;33.45;;;0.80;99.90;;;;;;5098278;28;20118;-80
2023/01/16 01:03:16;;;;;;;55.90;53.05;;;0.80;99.90;;;;;;5079022;28;20032;-79
2023/01/16 01:05:42;;;;;;;12.07;11.57;;;0.80;99.90;;;;;;5083762;28;20051;-80
2023/01/16 01:08:08;;;;;;;12.80;12.25;;;0.70;99.90;;;;;;5092796;28;20544;-80
2023/01/16 01:10:37;;;;;;;14.45;13.57;;;0.70;99.90;;;;;;5097912;28;20107;-80
2023/01/16 01:13:03;;;;;;;18.30;17.58;;;0.60;99.90;;;;;;5102271;28;20036;-80
2023/01/16 01:15:28;;;;;;;12.18;11.65;;;0.50;99.90;;;;;;5094105;28;20393;-79
2023/01/16 01:17:54;;;;;;;87.43;81.25;;;0.60;99.90;;;;;;5103344;28;20131;-80
2023/01/16 01:20:20;;;;;;;12.20;11.60;;;0.80;99.90;;;;;;5093136;28;20078;-79
2023/01/16 01:22:46;;;;;;;31.13;29.92;;;0.70;99.90;;;;;;5103942;28;20030;-80
2023/01/16 01:25:12;;;;;;;15.60;14.90;;;0.80;99.90;;;;;;5097717;28;20036;-79
2023/01/16 01:27:37;;;;;;;12.73;12.00;;;0.70;99.90;;;;;;5099205;28;20055;-80
2023/01/16 01:30:04;;;;;;;12.63;12.13;;;0.80;99.90;;;;;;5100879;28;20067;-80
2023/01/16 01:32:30;;;;;;;13.57;12.98;;;0.70;99.90;;;;;;5087165;28;20055;-79
2023/01/16 01:34:56;;;;;;;32.92;31.52;;;0.70;99.90;;;;;;5096702;28;20036;-79
2023/01/16 01:37:22;;;;;;;131.02;124.25;;;0.80;99.90;;;;;;5097101;28;20032;-80
2023/01/16 01:39:47;;;;;;;70.28;67.18;;;0.90;99.90;;;;;;5084724;28;20027;-80
2023/01/16 01:45:05;;;;;;;13.40;12.88;;;0.90;99.90;;;;;;5097586;28;20571;-80
2023/01/16 01:47:36;;;;;;;13.48;12.88;;;0.80;99.90;;;;;;5105002;28;20028;-80
2023/01/16 01:50:15;;;;;;;34.10;32.85;;;0.60;99.90;;;;;;5093531;28;20486;-79
2023/01/16 01:52:41;;;;;;;80.53;76.97;;;0.40;99.90;;;;;;5100856;28;20112;-81
2023/01/16 01:55:09;;;;;;;46.40;44.35;;;0.30;99.90;;;;;;5077459;28;20122;-80
2023/01/16 01:57:46;;;;;;;53.70;51.78;;;0.30;99.90;;;;;;5098284;28;20096;-80
2023/01/16 02:00:18;;;;;;;42.65;41.10;;;0.10;99.90;;;;;;5099694;28;20047;-80
2023/01/16 02:03:02;;;;;;;54.90;52.92;;;0.00;99.90;;;;;;5096913;28;20035;-80
2023/01/16 02:05:34;;;;;;;44.50;42.83;;;-0.10;99.90;;;;;;5099753;28;20533;-80
2023/01/16 02:08:02;;;;;;;51.90;50.03;;;-0.20;99.90;;;;;;5073705;28;20043;-80
2023/01/16 02:10:39;;;;;;;56.47;54.25;;;-0.40;99.90;;;;;;5102342;28;20033;-80
2023/01/16 02:13:05;;;;;;;55.38;53.42;;;-0.50;99.90;;;;;;5091534;28;20044;-81
2023/01/16 02:15:31;;;;;;;59.83;57.70;;;-0.50;99.90;;;;;;5101300;28;20027;-80
2023/01/16 02:20:53;;;;;;;65.13;62.67;;;-0.50;99.90;;;;;;5105336;28;20436;-80
2023/01/16 02:23:39;;;;;;;55.22;53.17;;;-0.70;99.90;;;;;;5100874;28;20100;-81
2023/01/16 02:26:42;;;;;;;69.85;66.70;;;-0.80;99.90;;;;;;5095135;28;20109;-80
2023/01/16 02:29:15;;;;;;;43.72;42.15;;;-1.00;99.90;;;;;;5094975;28;20457;-81
2023/01/16 02:31:55;;;;;;;53.80;51.85;;;-1.10;99.90;;;;;;5096868;28;20031;-80
2023/01/16 02:34:56;;;;;;;54.87;52.67;;;-1.30;99.90;;;;;;5095028;28;20070;-80
2023/01/16 02:37:39;;;;;;;56.78;54.75;;;-1.30;99.90;;;;;;5093707;28;20095;-79
2023/01/16 02:40:20;;;;;;;66.63;64.10;;;-1.30;99.90;;;;;;5098482;28;20086;-80
2023/01/16 02:43:03;;;;;;;80.57;77.65;;;-1.30;99.90;;;;;;5096222;28;20030;-79
2023/01/16 02:45:41;;;;;;;83.88;80.80;;;-1.30;99.90;;;;;;5099055;28;20493;-80
2023/01/16 02:48:21;;;;;;;143.63;137.70;;;-1.40;99.90;;;;;;5094412;28;20032;-80
2023/01/16 02:51:04;;;;;;;180.20;173.68;;;-1.30;99.90;;;;;;5099984;28;20027;-81
2023/01/16 02:53:42;;;;;;;196.85;189.02;;;-1.20;99.90;;;;;;5094959;28;20032;-80
2023/01/16 02:56:13;;;;;;;182.13;175.57;;;-1.20;99.90;;;;;;5102339;28;20138;-79
2023/01/16 02:58:44;;;;;;;332.70;319.88;;;-1.20;99.90;;;;;;5095638;28;20028;-80
2023/01/16 03:01:11;;;;;;;319.60;307.40;;;-1.00;99.90;;;;;;5089943;28;20510;-81
2023/01/16 03:03:46;;;;;;;324.60;312.08;;;-1.00;99.90;;;;;;5095377;28;20032;-81
2023/01/16 03:06:14;;;;;;;387.50;372.55;;;-1.00;99.90;;;;;;5092920;28;20029;-79
2023/01/16 03:09:05;;;;;;;294.30;282.38;;;-1.00;99.90;;;;;;5101836;28;20024;-79
2023/01/16 03:11:40;;;;;;;178.48;170.60;;;-0.80;99.90;;;;;;5091230;28;20024;-80
2023/01/16 03:14:34;;;;;;;85.78;82.72;;;-0.80;99.90;;;;;;5096295;28;20055;-80
2023/01/16 03:17:32;;;;;;;118.35;114.05;;;-0.70;99.90;;;;;;5087197;28;20042;-81
2023/01/16 03:20:19;;;;;;;161.35;154.32;;;-0.80;99.90;;;;;;5076822;28;20127;-80
2023/01/16 03:23:07;;;;;;;175.80;169.30;;;-0.70;99.90;;;;;;5093872;28;20634;-80
2023/01/16 03:25:54;;;;;;;110.45;106.45;;;-0.80;99.90;;;;;;5084023;28;20633;-79
2023/01/16 03:28:47;;;;;;;110.60;106.75;;;-0.80;99.90;;;;;;5089978;28;20047;-80
2023/01/16 03:31:32;;;;;;;251.20;241.05;;;-0.90;99.90;;;;;;5086492;28;20044;-80
2023/01/16 03:34:21;;;;;;;280.08;269.77;;;-0.80;99.90;;;;;;5092162;28;20028;-80
2023/01/16 03:37:14;;;;;;;311.42;299.83;;;-0.80;99.90;;;;;;5098598;28;20392;-79
2023/01/16 03:39:55;;;;;;;291.70;281.05;;;-1.00;99.90;;;;;;5088315;27;20047;-81
2023/01/16 03:42:38;;;;;;;;;;;-1.10;99.90;;;;;;5100437;28;20043;-80
2023/01/16 03:45:33;;;;;;;224.52;215.73;;;-1.10;99.90;;;;;;5095742;28;19912;-80
2023/01/16 03:48:07;;;;;;;190.25;183.68;;;-1.00;99.90;;;;;;5069216;28;20039;-81
2023/01/16 03:50:34;;;;;;;270.33;260.50;;;-1.00;99.90;;;;;;5095911;28;20665;-81
2023/01/16 03:53:05;;;;;;;396.13;375.42;;;-1.00;99.90;;;;;;5095950;28;20036;-81
2023/01/16 03:55:53;;;;;;;318.00;305.67;;;-0.90;99.90;;;;;;5099487;28;20103;-81
2023/01/16 03:58:30;;;;;;;310.15;298.90;;;-0.90;99.90;;;;;;5091627;28;20023;-81
2023/01/16 04:01:13;;;;;;;281.35;271.35;;;-0.90;99.90;;;;;;5096874;28;20028;-81
2023/01/16 04:04:01;;;;;;;318.30;306.65;;;-0.80;99.90;;;;;;5092283;28;20024;-80
2023/01/16 04:06:49;;;;;;;332.90;320.73;;;-1.00;99.90;;;;;;5096367;28;20024;-81
2023/01/16 04:09:26;;;;;;;408.30;385.88;;;-0.80;99.90;;;;;;5090480;28;20474;-81
2023/01/16 04:11:53;;;;;;;381.23;365.95;;;-0.70;99.90;;;;;;5096442;28;20023;-81
2023/01/16 04:14:23;;;;;;;356.85;343.25;;;-0.70;99.90;;;;;;5096207;28;20028;-81
2023/01/16 04:16:50;;;;;;;428.98;409.95;;;-0.80;99.90;;;;;;5097608;28;20127;-81
2023/01/16 04:19:18;;;;;;;319.00;307.10;;;-0.70;99.90;;;;;;5094693;28;20082;-82
2023/01/16 04:21:46;;;;;;;321.48;309.60;;;-0.80;99.90;;;;;;5077216;28;20028;-80
2023/01/16 04:24:33;;;;;;;303.02;285.08;;;-0.80;99.90;;;;;;5098978;28;20028;-81
2023/01/16 04:26:58;;;;;;;183.27;176.27;;;-0.60;99.90;;;;;;5092088;28;20040;-81
2023/01/16 04:29:25;;;;;;;157.15;148.63;;;-0.60;99.90;;;;;;5082777;28;20055;-81
2023/01/16 04:31:51;;;;;;;132.38;127.13;;;-0.70;99.90;;;;;;5092553;28;20382;-81
2023/01/16 04:34:17;;;;;;;101.43;97.85;;;-0.80;99.90;;;;;;5099713;28;20038;-81
2023/01/16 04:36:42;;;;;;;128.15;122.70;;;-0.90;99.90;;;;;;5078514;28;20595;-82
2023/01/16 04:39:08;;;;;;;95.00;91.55;;;-1.00;99.90;;;;;;5092259;28;20035;-81
2023/01/16 04:41:36;;;;;;;185.73;175.85;;;-1.00;99.90;;;;;;5097822;28;20036;-81
2023/01/16 04:44:03;;;;;;;81.43;78.63;;;-0.90;99.90;;;;;;5089526;28;20020;-81
2023/01/16 04:46:29;;;;;;;83.97;80.82;;;-0.90;99.90;;;;;;5103027;28;20070;-82
2023/01/16 04:48:55;;;;;;;118.53;114.13;;;-1.00;99.90;;;;;;5094661;28;20500;-81
2023/01/16 04:51:22;;;;;;;131.52;126.75;;;-1.00;99.90;;;;;;5096832;28;20103;-81
2023/01/16 04:53:47;;;;;;;94.40;91.10;;;-1.00;99.90;;;;;;5075498;28;20032;-80
2023/01/16 04:56:15;;;;;;;104.22;100.53;;;-1.10;99.90;;;;;;5075708;28;20112;-80
2023/01/16 04:58:41;;;;;;;85.95;82.68;;;-1.20;99.90;;;;;;5095895;28;20591;-80
2023/01/16 05:01:07;;;;;;;66.70;64.32;;;-1.30;99.90;;;;;;5090686;28;20037;-80
2023/01/16 05:03:32;;;;;;;265.40;254.77;;;-1.30;99.90;;;;;;5100374;28;20024;-79
2023/01/16 05:05:58;;;;;;;72.75;70.22;;;-1.00;99.90;;;;;;5097012;28;20035;-79
2023/01/16 05:08:27;;;;;;;107.10;103.38;;;-1.10;99.90;;;;;;5095233;28;20500;-80
2023/01/16 05:10:53;;;;;;;109.35;105.45;;;-1.20;99.90;;;;;;5081963;28;20035;-80
2023/01/16 05:13:20;;;;;;;123.95;119.57;;;-1.30;99.90;;;;;;5085459;28;20056;-80
2023/01/16 05:15:45;;;;;;;118.45;114.32;;;-1.20;99.90;;;;;;5097912;28;20070;-80
2023/01/16 05:18:12;;;;;;;109.38;105.55;;;-1.40;99.90;;;;;;5106236;28;20072;-80
2023/01/16 05:20:38;;;;;;;107.20;103.38;;;-1.40;99.90;;;;;;5073447;28;20028;-78
2023/01/16 05:23:10;;;;;;;103.72;99.93;;;-1.30;99.90;;;;;;5095565;28;20028;-85
2023/01/16 05:25:37;;;;;;;95.78;92.45;;;-1.30;99.90;;;;;;5085653;28;20036;-84
2023/01/16 05:28:03;;;;;;;104.30;100.57;;;-1.40;99.90;;;;;;5100021;28;20032;-84
2023/01/16 05:30:29;;;;;;;121.35;116.95;;;-1.50;99.90;;;;;;5081548;28;20429;-84
2023/01/16 05:32:55;;;;;;;105.13;101.53;;;-1.40;99.90;;;;;;5085284;28;20100;-84
2023/01/16 05:35:21;;;;;;;79.80;77.03;;;-1.50;99.90;;;;;;5096571;28;20032;-81
2023/01/16 05:37:47;;;;;;;133.00;128.18;;;-1.40;99.90;;;;;;5098983;28;20028;-80
2023/01/16 05:40:13;;;;;;;146.73;141.60;;;-1.40;99.90;;;;;;5090291;28;20050;-80
2023/01/16 05:42:41;;;;;;;125.53;121.13;;;-1.40;99.90;;;;;;5087615;28;20540;-78
2023/01/16 05:45:07;;;;;;;97.53;94.00;;;-1.50;99.90;;;;;;5081542;28;20039;-79
2023/01/16 05:47:33;;;;;;;95.88;92.43;;;-1.60;99.90;;;;;;5093493;28;20032;-78
2023/01/16 05:49:58;;;;;;;105.15;101.45;;;-1.60;99.90;;;;;;5071763;28;20104;-79
2023/01/16 05:52:26;;;;;;;172.05;165.65;;;-1.70;99.90;;;;;;5097761;28;20102;-79
2023/01/16 05:54:52;;;;;;;91.88;88.50;;;-1.70;99.90;;;;;;5093241;28;20390;-79
2023/01/16 05:57:18;;;;;;;99.03;95.50;;;-1.90;99.90;;;;;;5079886;28;20086;-78
2023/01/16 05:59:47;;;;;;;128.48;123.68;;;-1.90;99.90;;;;;;5083615;28;20035;-78
2023/01/16 06:02:13;;;;;;;113.53;109.38;;;-1.90;99.90;;;;;;5069617;28;20032;-78
2023/01/16 06:04:39;;;;;;;125.35;120.65;;;-1.80;99.90;;;;;;5069662;28;20028;-78
2023/01/16 06:07:05;;;;;;;99.53;95.68;;;-1.70;99.90;;;;;;5101585;28;20028;-78
2023/01/16 06:09:30;;;;;;;114.57;110.20;;;-1.70;99.90;;;;;;5096906;28;20040;-76
2023/01/16 06:11:56;;;;;;;160.55;154.85;;;-1.60;99.90;;;;;;5100528;28;20027;-79
2023/01/16 06:14:21;;;;;;;142.65;136.40;;;-1.70;99.90;;;;;;5102290;28;20034;-79
2023/01/16 06:16:47;;;;;;;137.80;133.02;;;-1.70;99.90;;;;;;5082444;28;20043;-78
2023/01/16 06:19:12;;;;;;;115.90;111.68;;;-1.80;99.90;;;;;;5079088;28;20044;-78
2023/01/16 06:21:39;;;;;;;157.40;151.55;;;-1.80;99.90;;;;;;5093220;28;20031;-79
2023/01/16 06:24:05;;;;;;;135.95;130.43;;;-1.80;99.90;;;;;;5090029;28;20032;-76
2023/01/16 06:26:33;;;;;;;212.05;201.63;;;-1.70;99.90;;;;;;5093774;28;20021;-77
2023/01/16 06:28:59;;;;;;;119.70;115.40;;;-1.80;99.90;;;;;;5089474;28;20032;-75
2023/01/16 06:31:25;;;;;;;109.15;104.90;;;-1.80;99.90;;;;;;5098025;28;20096;-75
2023/01/16 06:33:50;;;;;;;137.93;133.05;;;-1.90;99.90;;;;;;5089266;28;20031;-74
2023/01/16 06:36:16;;;;;;;126.68;122.18;;;-1.90;99.90;;;;;;5103661;28;20418;-75
2023/01/16 06:38:41;;;;;;;124.55;120.22;;;-1.90;99.90;;;;;;5090394;28;20059;-75
2023/01/16 06:41:07;;;;;;;77.07;74.38;;;-1.80;99.90;;;;;;5095773;28;20055;-75
2023/01/16 06:43:33;;;;;;;133.55;128.95;;;-1.90;99.90;;;;;;5090679;28;20512;-73
2023/01/16 06:45:58;;;;;;;108.78;104.88;;;-2.00;99.90;;;;;;5096753;28;20512;-75
2023/01/16 06:48:24;;;;;;;71.45;68.88;;;-2.00;99.90;;;;;;5099983;28;20525;-75
2023/01/16 06:50:51;;;;;;;106.30;102.53;;;-2.00;99.90;;;;;;5094675;28;20066;-75
2023/01/16 06:53:17;;;;;;;129.98;125.47;;;-1.90;99.90;;;;;;5101455;28;20060;-76
2023/01/16 06:55:43;;;;;;;103.68;100.00;;;-2.00;99.90;;;;;;5081958;28;20434;-76
2023/01/16 06:58:09;;;;;;;84.63;81.65;;;-2.00;99.90;;;;;;5096849;28;20024;-74
2023/01/16 07:00:36;;;;;;;86.97;83.93;;;-2.00;99.90;;;;;;5099605;28;20028;-76
2023/01/16 07:03:02;;;;;;;44.90;43.28;;;-2.10;99.90;;;;;;5094698;28;20035;-76
2023/01/16 07:05:30;;;;;;;51.97;50.05;;;-2.10;99.90;;;;;;5103317;28;20024;-75
2023/01/16 07:07:56;;;;;;;60.95;58.80;;;-2.10;99.90;;;;;;5093964;28;20078;-72
2023/01/16 07:10:22;;;;;;;92.47;88.70;;;-2.00;99.90;;;;;;5096158;28;20505;-77
2023/01/16 07:12:50;;;;;;;98.32;94.50;;;-1.90;99.90;;;;;;5088876;28;20031;-78
2023/01/16 07:23:44;;;;;;;25.98;24.90;;;-1.60;99.90;;;;;;5092426;28;20035;-77
2023/01/16 07:26:11;;;;;;;54.97;52.88;;;-1.70;99.90;;;;;;5095018;28;20028;-76
2023/01/16 07:28:38;;;;;;;39.80;38.22;;;-1.60;99.90;;;;;;5099572;28;20146;-77
2023/01/16 07:31:06;;;;;;;51.67;49.63;;;-1.60;99.90;;;;;;5092544;28;20028;-76
2023/01/16 07:33:33;;;;;;;89.75;80.97;;;-1.50;99.90;;;;;;5095838;28;20085;-77
2023/01/16 07:35:59;;;;;;;77.88;72.32;;;-1.40;99.90;;;;;;5096343;28;20051;-77
2023/01/16 07:38:25;;;;;;;85.70;80.82;;;-1.30;99.90;;;;;;5098432;28;20081;-80
2023/01/16 07:40:50;;;;;;;94.72;90.45;;;-1.30;99.90;;;;;;5081164;28;20028;-79
2023/01/16 07:43:16;;;;;;;85.38;81.70;;;-1.20;99.90;;;;;;5091553;28;20028;-78
2023/01/16 07:45:41;;;;;;;71.20;68.45;;;-1.20;99.90;;;;;;5092910;28;20470;-78
2023/01/16 07:48:08;;;;;;;53.08;51.00;;;-1.20;99.90;;;;;;5090964;28;20478;-78
2023/01/16 07:50:34;;;;;;;64.03;61.70;;;-1.20;99.90;;;;;;5091341;28;20065;-79
2023/01/16 07:52:59;;;;;;;47.97;46.22;;;-1.10;99.90;;;;;;5091220;28;20512;-79
2023/01/16 07:55:25;;;;;;;51.75;49.30;;;-1.10;99.90;;;;;;5087478;28;20032;-78
2023/01/16 07:57:50;;;;;;;35.55;34.13;;;-1.00;99.90;;;;;;5091155;28;20031;-78
2023/01/16 08:00:16;;;;;;;38.05;36.55;;;-0.90;99.90;;;;;;5089215;28;20028;-78
2023/01/16 08:02:42;;;;;;;34.88;33.53;;;-0.80;99.90;;;;;;5094000;28;20028;-79
2023/01/16 08:05:09;;;;;;;34.50;33.17;;;-0.70;99.90;;;;;;5094595;28;20059;-78
2023/01/16 08:07:35;;;;;;;50.35;48.45;;;-0.50;99.90;;;;;;5092842;28;20030;-78
2023/01/16 08:10:02;;;;;;;45.15;43.00;;;-0.50;99.90;;;;;;5092152;28;20036;-79
2023/01/16 08:12:27;;;;;;;50.30;48.45;;;-0.30;99.90;;;;;;5072444;28;20024;-79
2023/01/16 08:14:53;;;;;;;37.00;35.50;;;-0.30;99.90;;;;;;5094271;28;20028;-79
2023/01/16 08:17:19;;;;;;;42.42;40.85;;;-0.30;99.90;;;;;;5088595;28;20436;-79
2023/01/16 08:19:44;;;;;;;31.83;30.23;;;-0.30;99.90;;;;;;5092952;28;20024;-77
2023/01/16 08:22:11;;;;;;;22.50;21.33;;;-0.30;99.90;;;;;;5094178;28;20028;-74
2023/01/16 08:24:37;;;;;;;19.02;17.92;;;-0.30;99.90;;;;;;5091493;28;20051;-75
2023/01/16 08:27:02;;;;;;;13.07;12.32;;;-0.20;99.90;;;;;;5095169;28;20513;-74
2023/01/16 08:29:28;;;;;;;13.77;13.07;;;-0.10;99.90;;;;;;5095975;28;20470;-74
2023/01/16 08:31:54;;;;;;;13.35;12.55;;;0.00;99.90;;;;;;5097406;28;20046;-74
2023/01/16 08:34:19;;;;;;;19.35;18.38;;;0.20;99.90;;;;;;5085220;28;20107;-76
2023/01/16 08:36:45;;;;;;;12.93;12.23;;;0.30;99.90;;;;;;5088830;28;20470;-77
2023/01/16 08:39:11;;;;;;;12.98;12.27;;;0.20;99.90;;;;;;5096688;28;20493;-77
2023/01/16 08:52:42;;;;;;;10.82;10.23;;;0.40;99.90;;;;;;5086573;28;20043;-82
2023/01/16 08:55:08;;;;;;;9.90;9.40;;;0.80;99.90;;;;;;5087680;28;20028;-83
2023/01/16 08:57:35;;;;;;;10.18;9.68;;;1.00;99.90;;;;;;5089275;28;20115;-71
2023/01/16 09:00:00;;;;;;;11.60;10.90;;;1.10;98.70;;;;;;5096059;28;20098;-72
2023/01/16 09:02:27;;;;;;;11.95;11.35;;;1.20;97.80;;;;;;5094938;28;20032;-73
2023/01/16 09:04:54;;;;;;;12.43;11.73;;;1.40;99.20;;;;;;5095790;28;20068;-73
2023/01/16 09:07:20;;;;;;;13.38;12.57;;;1.40;99.90;;;;;;5094683;28;20511;-73
2023/01/16 09:09:46;;;;;;;11.20;10.40;;;1.40;99.90;;;;;;5089512;28;20076;-78
2023/01/16 09:14:58;;;;;;;10.90;10.35;;;1.30;99.60;;;;;;5089718;28;20081;-78
2023/01/16 09:17:25;;;;;;;11.25;10.65;;;1.30;98.80;;;;;;5091584;28;20048;-78
2023/01/16 09:19:52;;;;;;;9.02;8.52;;;1.40;98.40;;;;;;5094153;28;20043;-79
2023/01/16 09:22:18;;;;;;;9.00;8.20;;;1.30;98.30;;;;;;5092809;28;20036;-78
2023/01/16 09:24:44;;;;;;;7.93;7.43;;;1.40;97.80;;;;;;5092240;28;20055;-79
2023/01/16 09:27:12;;;;;;;10.35;9.88;;;1.60;96.90;;;;;;5092870;28;20028;-80
2023/01/16 09:29:38;;;;;;;11.00;10.40;;;1.70;96.00;;;;;;5077511;28;20115;-73
2023/01/16 09:32:08;;;;;;;56.22;52.63;;;1.70;94.40;;;;;;5094535;28;20107;-80
2023/01/16 09:34:37;;;;;;;11.50;10.85;;;1.70;93.50;;;;;;5074841;28;20040;-79
2023/01/16 09:37:04;;;;;;;6.90;6.60;;;1.80;94.10;;;;;;5093398;28;20138;-79
2023/01/16 09:39:31;;;;;;;9.50;8.68;;;1.80;91.80;;;;;;5091692;28;20043;-80
2023/01/16 09:45:19;;;;;;;6.90;6.40;;;1.80;95.40;;;;;;5006897;28;20042;-80
2023/01/16 09:47:49;;;;;;;7.35;6.78;;;1.70;95.00;;;;;;5051604;28;20102;-81
2023/01/16 09:50:42;;;;;;;9.93;9.35;;;1.80;94.30;;;;;;5100560;28;20024;-80
2023/01/16 09:59:03;;;;;;;9.18;8.77;;;1.60;96.00;;;;;;5099653;28;20034;-81
2023/01/16 10:01:42;;;;;;;8.35;7.95;;;1.70;97.00;;;;;;5073604;28;20584;-80
2023/01/16 10:04:18;;;;;;;9.75;9.32;;;1.70;97.30;;;;;;5091414;28;20405;-80
2023/01/16 10:06:53;;;;;;;9.82;9.32;;;1.80;98.50;;;;;;5089476;28;20486;-80
2023/01/16 10:09:31;;;;;;;11.00;10.45;;;1.80;97.30;;;;;;5095271;28;20492;-81
2023/01/16 10:12:11;;;;;;;13.05;12.45;;;2.00;97.20;;;;;;5094085;28;20024;-80
2023/01/16 10:14:54;;;;;;;9.57;9.10;;;1.80;97.30;;;;;;5098994;28;20027;-81
2023/01/16 10:17:36;;;;;;;7.78;7.35;;;1.70;98.70;;;;;;5091779;28;20561;-80
2023/01/16 10:20:14;;;;;;;9.07;8.57;;;1.60;97.40;;;;;;5094855;28;20043;-80
2023/01/16 10:22:54;;;;;;;10.98;10.52;;;1.80;98.50;;;;;;5097313;28;20505;-80
2023/01/16 10:25:28;;;;;;;10.45;10.02;;;2.00;96.00;;;;;;5090889;28;20032;-81
2023/01/16 10:28:21;;;;;;;10.38;9.88;;;1.90;96.60;;;;;;5102217;28;20035;-81
2023/01/16 10:30:52;;;;;;;9.95;9.35;;;1.90;97.40;;;;;;5093365;28;20032;-80
2023/01/16 10:33:23;;;;;;;11.30;10.75;;;1.90;97.70;;;;;;5098593;28;20027;-80
2023/01/16 10:35:50;;;;;;;10.77;10.20;;;2.00;94.70;;;;;;5096337;28;20509;-79
2023/01/16 10:50:18;;;;;;;10.77;10.23;;;2.20;96.30;;;;;;5096787;28;20038;-81
2023/01/16 10:52:45;;;;;;;10.15;9.30;;;2.40;95.10;;;;;;5093978;28;20012;-80
2023/01/16 10:55:11;;;;;;;10.68;10.07;;;2.40;95.30;;;;;;5089154;28;20525;-80
2023/01/16 10:57:52;;;;;;;10.60;10.00;;;2.40;94.30;;;;;;5090813;28;20055;-80
2023/01/16 11:00:30;;;;;;;10.60;10.10;;;2.40;94.20;;;;;;5092934;28;20020;-81
2023/01/16 11:03:29;;;;;;;10.15;9.45;;;2.40;94.30;;;;;;5099486;28;20219;-79
2023/01/16 11:06:22;;;;;;;11.48;10.98;;;2.10;92.90;;;;;;5087894;28;20048;-79
2023/01/16 11:08:54;;;;;;;10.80;10.30;;;2.10;94.50;;;;;;5094252;28;20040;-80
2023/01/16 11:20:34;;;;;;;9.45;8.98;;;2.20;94.90;;;;;;5096026;28;20060;-79
2023/01/16 11:23:12;;;;;;;7.20;6.80;;;2.10;94.40;;;;;;5091007;28;20138;-79
2023/01/16 11:25:38;;;;;;;5.75;5.32;;;2.10;93.70;;;;;;5092374;28;20028;-79
2023/01/16 11:28:06;;;;;;;6.63;6.32;;;2.00;94.10;;;;;;5094451;28;20118;-77
2023/01/16 11:30:45;;;;;;;9.90;9.40;;;1.90;94.80;;;;;;5095112;28;20024;-79
2023/01/16 11:33:17;;;;;;;6.80;6.25;;;1.80;94.30;;;;;;5095004;28;20045;-78
2023/01/16 11:36:07;;;;;;;9.52;8.90;;;1.90;93.10;;;;;;5096608;28;20027;-78
2023/01/16 11:38:37;;;;;;;10.45;9.85;;;1.80;93.10;;;;;;5092354;28;20061;-78
2023/01/16 11:41:06;;;;;;;9.60;9.20;;;1.90;92.70;;;;;;5091032;28;20421;-78
2023/01/16 11:46:19;;;;;;;5.15;4.90;;;2.00;92.40;;;;;;5090797;28;20043;-79
2023/01/16 11:48:48;;;;;;;6.03;5.45;;;2.00;92.50;;;;;;5095364;28;20102;-79
2023/01/16 11:51:17;;;;;;;8.63;8.13;;;2.00;92.20;;;;;;5091156;28;20043;-83
2023/01/16 11:53:46;;;;;;;12.57;11.98;;;2.00;92.60;;;;;;5094052;28;20046;-84
2023/01/16 11:56:33;;;;;;;9.82;9.13;;;2.10;93.50;;;;;;5094003;28;20085;-84
2023/01/16 11:59:23;;;;;;;8.50;7.68;;;2.10;92.50;;;;;;5085927;28;20027;-83
2023/01/16 12:05:53;;;;;;;6.90;6.22;;;2.10;91.90;;;;;;5090409;28;20035;-84
2023/01/16 12:07:52;;;;;;;5.50;5.00;;;2.10;91.40;;;;;;5095470;28;20024;-83
2023/01/16 12:10:39;;;;;;;8.35;7.88;;;2.10;90.70;;;;;;5095483;28;20034;-83
2023/01/16 12:16:20;;;;;;;5.90;5.63;;;2.00;92.50;;;;;;5096512;28;20077;-80
2023/01/16 12:19:07;;;;;;;9.20;8.73;;;2.10;93.30;;;;;;5096550;28;20096;-80
2023/01/16 12:21:38;;;;;;;10.68;10.15;;;2.20;94.00;;;;;;5092299;28;20035;-80
2023/01/16 12:24:19;;;;;;;;;;;2.30;93.60;;;;;;5091369;28;20402;-80
2023/01/16 12:26:53;;;;;;;;;;;2.30;94.20;;;;;;5066270;28;19926;-80
2023/01/16 12:29:32;;;;;;;4.75;4.35;;;2.60;93.30;;;;;;5101223;28;19912;-77
2023/01/16 12:32:26;;;;;;;7.53;7.13;;;2.60;91.90;;;;;;5091051;28;20024;-77
2023/01/16 12:35:05;;;;;;;6.22;5.93;;;2.70;92.80;;;;;;5090262;28;20139;-79
2023/01/16 12:37:43;;;;;;;6.20;5.60;;;2.40;92.00;;;;;;5089699;28;20107;-76
2023/01/16 12:40:23;;;;;;;7.75;7.18;;;2.30;92.60;;;;;;5100406;28;20024;-75
2023/01/16 12:43:19;;;;;;;8.80;8.40;;;2.30;93.10;;;;;;5097759;28;20494;-76
2023/01/16 12:46:11;;;;;;;7.70;7.20;;;2.30;93.20;;;;;;5100703;28;20393;-77
2023/01/16 12:49:02;;;;;;;9.88;9.38;;;2.20;95.00;;;;;;5095899;28;20066;-79
2023/01/16 12:51:40;;;;;;;10.07;9.27;;;2.10;94.80;;;;;;5098105;28;20024;-78
2023/01/16 12:54:28;;;;;;;8.02;7.60;;;2.10;94.80;;;;;;5096938;28;20043;-79
2023/01/16 12:56:57;;;;;;;9.13;8.63;;;2.20;93.70;;;;;;5096537;28;20027;-78
2023/01/16 12:59:28;;;;;;;5.88;5.45;;;2.30;93.40;;;;;;5095691;28;20032;-78
2023/01/16 13:02:22;;;;;;;7.68;7.22;;;2.20;93.10;;;;;;5086763;28;20025;-79
2023/01/16 13:05:00;;;;;;;6.50;6.13;;;2.10;92.40;;;;;;5100867;28;20035;-79
2023/01/16 13:07:31;;;;;;;6.95;6.55;;;2.10;93.20;;;;;;5095065;28;20058;-80
2023/01/16 13:15:44;;;;;;;10.55;9.85;;;1.90;94.90;;;;;;5098136;28;20069;-80
2023/01/16 13:18:33;;;;;;;8.80;8.30;;;2.00;95.20;;;;;;5098881;28;20059;-81
2023/01/16 13:21:03;;;;;;;10.13;9.43;;;2.00;94.50;;;;;;5085901;28;20028;-80
2023/01/16 13:24:03;;;;;;;10.23;9.60;;;1.90;95.20;;;;;;5091574;28;20045;-80
2023/01/16 13:26:32;;;;;;;10.67;10.00;;;1.90;95.40;;;;;;5093191;28;20020;-78
2023/01/16 13:29:27;;;;;;;12.32;11.60;;;2.10;95.40;;;;;;5095030;28;20035;-78
2023/01/16 13:31:58;;;;;;;12.35;11.75;;;2.30;95.50;;;;;;5091922;28;20383;-79
2023/01/16 13:34:34;;;;;;;13.73;13.13;;;2.70;95.60;;;;;;5071928;28;20041;-79
2023/01/16 13:37:24;;;;;;;14.23;13.15;;;2.80;93.30;;;;;;5091003;28;20501;-79
2023/01/16 13:40:22;;;;;;;7.90;7.47;;;2.90;92.40;;;;;;5094454;28;20028;-79
2023/01/16 13:45:54;;;;;;;10.95;10.32;;;3.00;92.00;;;;;;5096806;28;20031;-79
2023/01/16 13:48:26;;;;;;;6.70;6.20;;;3.10;90.80;;;;;;5073133;28;20035;-79
2023/01/16 13:51:01;;;;;;;7.63;7.03;;;3.00;91.20;;;;;;5083718;28;20111;-77
2023/01/16 13:53:29;;;;;;;7.10;6.60;;;3.20;91.60;;;;;;5068564;28;20063;-79
2023/01/16 13:56:20;;;;;;;7.13;5.82;;;3.20;90.50;;;;;;5088184;28;20035;-80
2023/01/16 13:59:02;;;;;;;8.13;7.53;;;3.20;90.10;;;;;;5097094;28;20036;-79
2023/01/16 14:01:43;;;;;;;6.80;6.40;;;3.00;89.90;;;;;;5101842;28;20039;-79
2023/01/16 14:04:15;;;;;;;6.13;5.72;;;2.90;89.90;;;;;;5098192;28;20035;-78
2023/01/16 14:06:48;;;;;;;5.00;4.70;;;2.70;87.80;;;;;;5097753;28;20059;-78
2023/01/16 14:09:16;;;;;;;4.93;4.53;;;2.90;88.70;;;;;;5096021;28;20397;-78